Time;durP1;ratioP1;P1;durP2;ratioP2;P2;SDS_P1;SDS_P2;PMS_P1;PMS_P2;Temp;Humidity;BMP_temperature;BMP_pressure;BME280_temperature;BME280_humidity;BME280_pressure;Samples;Min_cycle;Max_cycle;Signal;HPM_P1;HPM_P2
2022/05/11 00:00:41;;;;;;;7.80;3.90;;;14.80;99.90;;;;;;5078561;28;20151;-84
2022/05/11 00:03:07;;;;;;;8.23;4.05;;;14.80;99.90;;;;;;5077183;28;20070;-84
2022/05/11 00:05:36;;;;;;;5.47;3.67;;;14.80;99.90;;;;;;5076218;28;20029;-84
2022/05/11 00:08:03;;;;;;;4.90;3.60;;;14.80;99.90;;;;;;5076385;28;20098;-84
2022/05/11 00:10:30;;;;;;;4.78;3.58;;;14.70;99.90;;;;;;5076280;28;20017;-83
2022/05/11 00:12:57;;;;;;;5.53;3.78;;;14.70;99.90;;;;;;5051807;28;20070;-84
2022/05/11 00:15:24;;;;;;;6.10;4.55;;;14.70;99.90;;;;;;5076293;28;20012;-84
2022/05/11 00:17:49;;;;;;;5.18;4.28;;;14.60;99.90;;;;;;5075819;28;20021;-84
2022/05/11 00:20:16;;;;;;;5.85;3.92;;;14.60;99.90;;;;;;5076126;28;20362;-84
2022/05/11 00:22:43;;;;;;;5.53;4.20;;;14.60;99.90;;;;;;5076878;28;20031;-84
2022/05/11 00:25:11;;;;;;;5.68;3.80;;;14.60;99.90;;;;;;5076170;28;20021;-84
2022/05/11 00:27:37;;;;;;;4.88;3.50;;;14.50;99.90;;;;;;5058083;28;20024;-84
2022/05/11 00:30:04;;;;;;;4.97;3.75;;;14.50;99.90;;;;;;5075826;28;20350;-83
2022/05/11 00:32:32;;;;;;;5.40;3.67;;;14.50;99.90;;;;;;5075870;28;20027;-84
2022/05/11 00:34:57;;;;;;;7.30;3.42;;;14.50;99.90;;;;;;5076267;28;20036;-84
2022/05/11 00:37:25;;;;;;;4.53;3.35;;;14.50;99.90;;;;;;5057532;28;20024;-84
2022/05/11 00:39:51;;;;;;;4.80;4.03;;;14.40;99.90;;;;;;5057155;28;20089;-84
2022/05/11 00:42:17;;;;;;;7.15;3.95;;;14.40;99.90;;;;;;5075109;28;20025;-84
2022/05/11 00:44:44;;;;;;;5.50;3.47;;;14.30;99.90;;;;;;5056655;28;20377;-84
2022/05/11 00:47:22;;;;;;;6.65;4.25;;;14.30;99.90;;;;;;5077149;28;20032;-84
2022/05/11 00:49:55;;;;;;;5.97;3.97;;;14.30;99.90;;;;;;5076811;28;20035;-84
2022/05/11 00:52:25;;;;;;;4.43;3.75;;;14.30;99.90;;;;;;5077282;28;20389;-84
2022/05/11 00:55:02;;;;;;;4.53;3.70;;;14.20;99.90;;;;;;5070363;28;20573;-84
2022/05/11 00:57:45;;;;;;;5.88;3.88;;;14.20;99.90;;;;;;5057747;28;20021;-84
2022/05/11 01:00:12;;;;;;;5.88;3.88;;;14.20;99.90;;;;;;5077240;28;20020;-85
2022/05/11 01:02:42;;;;;;;4.90;4.05;;;14.10;99.90;;;;;;5058320;28;20028;-84
2022/05/11 01:05:08;;;;;;;5.40;3.90;;;14.10;99.90;;;;;;5056201;28;20025;-84
2022/05/11 01:07:35;;;;;;;5.00;3.88;;;14.10;99.90;;;;;;5055799;28;20029;-84
2022/05/11 01:10:01;;;;;;;6.25;4.28;;;14.00;99.90;;;;;;5055686;28;20104;-84
2022/05/11 01:12:32;;;;;;;5.63;4.18;;;14.00;99.90;;;;;;5056211;28;20083;-84
2022/05/11 01:15:00;;;;;;;4.95;4.38;;;14.00;99.90;;;;;;5038491;28;20025;-84
2022/05/11 01:17:28;;;;;;;4.47;3.88;;;14.00;99.90;;;;;;5067716;28;20154;-84
2022/05/11 01:19:56;;;;;;;4.38;3.80;;;14.00;99.90;;;;;;5075733;28;20021;-84
2022/05/11 01:22:32;;;;;;;5.30;4.05;;;14.00;99.90;;;;;;5075857;28;20078;-84
2022/05/11 01:24:58;;;;;;;7.45;4.63;;;13.90;99.90;;;;;;5057180;28;20017;-84
2022/05/11 01:27:29;;;;;;;5.47;3.97;;;13.90;99.90;;;;;;5074867;28;20027;-84
2022/05/11 01:29:58;;;;;;;6.68;4.53;;;13.90;99.90;;;;;;5074938;28;20419;-84
2022/05/11 01:32:25;;;;;;;7.28;4.47;;;13.80;99.90;;;;;;5056680;28;20031;-85
2022/05/11 01:35:11;;;;;;;6.65;4.22;;;13.80;99.90;;;;;;5075148;28;20024;-84
2022/05/11 01:37:40;;;;;;;7.53;4.25;;;13.80;99.90;;;;;;5057565;28;20025;-85
2022/05/11 01:40:07;;;;;;;4.57;3.90;;;13.80;99.90;;;;;;5052846;28;20021;-84
2022/05/11 01:42:36;;;;;;;5.40;4.03;;;13.80;99.90;;;;;;5052546;28;20089;-84
2022/05/11 01:45:01;;;;;;;6.18;4.32;;;13.70;99.90;;;;;;5055011;28;20082;-84
2022/05/11 01:47:27;;;;;;;4.88;4.25;;;13.70;99.90;;;;;;5054272;28;20040;-84
2022/05/11 01:49:52;;;;;;;7.30;4.70;;;13.70;99.90;;;;;;5054618;28;20036;-84
2022/05/11 01:52:18;;;;;;;4.85;4.25;;;13.70;99.90;;;;;;5054422;28;20047;-84
2022/05/11 01:54:46;;;;;;;8.25;4.38;;;13.60;99.90;;;;;;5058133;28;20116;-84
2022/05/11 01:57:16;;;;;;;4.85;4.35;;;13.70;99.90;;;;;;5054623;28;20035;-84
2022/05/11 01:59:42;;;;;;;7.47;4.30;;;13.70;99.90;;;;;;5036313;28;20033;-84
2022/05/11 02:02:07;;;;;;;7.45;4.60;;;13.70;99.90;;;;;;5053599;28;20078;-85
2022/05/11 02:10:01;;;;;;;6.13;4.30;;;13.70;99.90;;;;;;5074484;28;20078;-84
2022/05/11 02:12:27;;;;;;;6.47;4.60;;;13.70;99.90;;;;;;5074190;28;20326;-85
2022/05/11 02:14:52;;;;;;;6.65;4.63;;;13.70;99.90;;;;;;5073940;28;20036;-85
2022/05/11 02:17:20;;;;;;;6.78;4.20;;;13.70;99.90;;;;;;5055699;28;20087;-85
2022/05/11 02:19:45;;;;;;;8.50;4.45;;;13.70;99.90;;;;;;5055868;28;20409;-85
2022/05/11 02:22:11;;;;;;;8.55;4.60;;;13.70;99.90;;;;;;5073679;28;20056;-85
2022/05/11 02:24:37;;;;;;;6.70;4.60;;;13.70;99.90;;;;;;5056431;28;20025;-85
2022/05/11 02:27:04;;;;;;;4.93;4.35;;;13.70;99.90;;;;;;5073687;28;20020;-85
2022/05/11 02:29:30;;;;;;;5.60;4.25;;;13.70;99.90;;;;;;5074419;28;20597;-85
2022/05/11 02:31:55;;;;;;;6.43;4.22;;;13.70;99.90;;;;;;5073550;28;20103;-85
2022/05/11 02:37:07;;;;;;;6.32;4.13;;;13.60;99.90;;;;;;5074449;28;20135;-85
2022/05/11 02:39:33;;;;;;;5.85;4.18;;;13.60;99.90;;;;;;5073792;28;20051;-85
2022/05/11 02:42:00;;;;;;;6.18;4.15;;;13.60;99.90;;;;;;5073633;28;20028;-85
2022/05/11 02:44:26;;;;;;;6.45;3.80;;;13.50;99.90;;;;;;5055351;28;20025;-85
2022/05/11 02:46:51;;;;;;;5.28;4.47;;;13.50;99.90;;;;;;5055672;28;20059;-85
2022/05/11 02:49:18;;;;;;;6.10;4.38;;;13.50;99.90;;;;;;5055391;28;20047;-85
2022/05/11 02:51:43;;;;;;;5.85;4.20;;;13.50;99.90;;;;;;5073044;28;20094;-85
2022/05/11 02:54:09;;;;;;;7.85;4.22;;;13.50;99.90;;;;;;5055524;28;20033;-85
2022/05/11 02:56:35;;;;;;;6.65;4.50;;;13.40;99.90;;;;;;5073214;28;20025;-85
2022/05/11 02:59:00;;;;;;;4.95;4.25;;;13.40;99.90;;;;;;5073977;28;20411;-85
2022/05/11 03:01:26;;;;;;;6.25;4.30;;;13.40;99.90;;;;;;5055018;28;20032;-85
2022/05/11 03:03:51;;;;;;;4.57;4.00;;;13.40;99.90;;;;;;5073703;28;20108;-85
2022/05/11 03:06:17;;;;;;;6.40;4.28;;;13.40;99.90;;;;;;5073010;28;20029;-85
2022/05/11 03:08:43;;;;;;;6.20;4.32;;;13.30;99.90;;;;;;5055101;28;20123;-85
2022/05/11 03:11:08;;;;;;;5.90;4.47;;;13.30;99.90;;;;;;5073587;28;20035;-86
2022/05/11 03:13:34;;;;;;;7.15;4.30;;;13.30;99.90;;;;;;5073144;28;20036;-86
2022/05/11 03:16:00;;;;;;;6.25;4.10;;;13.30;99.90;;;;;;5073429;28;20032;-85
2022/05/11 03:18:26;;;;;;;5.72;4.35;;;13.30;99.90;;;;;;5055070;28;20039;-86
2022/05/11 03:20:55;;;;;;;8.65;4.43;;;13.30;99.90;;;;;;5073483;28;20033;-86
2022/05/11 03:23:21;;;;;;;5.03;4.15;;;13.30;99.90;;;;;;5055088;28;20489;-85
2022/05/11 03:25:46;;;;;;;6.00;4.10;;;13.40;99.90;;;;;;5073716;28;20056;-86
2022/05/11 03:28:12;;;;;;;5.93;4.47;;;13.30;99.90;;;;;;5054659;28;20113;-85
2022/05/11 03:30:37;;;;;;;6.07;4.30;;;13.30;99.90;;;;;;5073401;28;20036;-85
2022/05/11 03:35:47;;;;;;;6.03;4.10;;;13.30;99.90;;;;;;5077371;28;20530;-86
2022/05/11 03:38:12;;;;;;;6.72;4.35;;;13.30;99.90;;;;;;5076854;28;20017;-85
2022/05/11 03:40:38;;;;;;;7.78;4.43;;;13.30;99.90;;;;;;5076989;28;20355;-85
2022/05/11 03:43:05;;;;;;;8.15;4.53;;;13.30;99.90;;;;;;5077891;28;20047;-85
2022/05/11 03:45:30;;;;;;;7.85;4.68;;;13.20;99.90;;;;;;5076753;28;20028;-86
2022/05/11 03:47:56;;;;;;;7.38;4.18;;;13.20;99.90;;;;;;5077705;28;20025;-85
2022/05/11 03:50:22;;;;;;;6.13;4.13;;;13.20;99.90;;;;;;5076727;28;20443;-85
2022/05/11 03:52:53;;;;;;;6.53;4.18;;;13.30;99.90;;;;;;5058404;28;20081;-85
2022/05/11 03:55:20;;;;;;;6.43;4.07;;;13.20;99.90;;;;;;5050342;28;20037;-85
2022/05/11 03:57:46;;;;;;;7.05;4.22;;;13.20;99.90;;;;;;5056654;28;20025;-86
2022/05/11 04:00:22;;;;;;;4.63;3.88;;;13.20;99.90;;;;;;5055849;28;20040;-85
2022/05/11 04:02:49;;;;;;;6.40;3.90;;;13.20;99.90;;;;;;5056232;28;20032;-85
2022/05/11 04:05:15;;;;;;;5.38;4.60;;;13.20;99.90;;;;;;5056847;28;20029;-86
2022/05/11 04:07:41;;;;;;;6.93;4.25;;;13.20;99.90;;;;;;5056466;28;20032;-85
2022/05/11 04:10:08;;;;;;;5.78;3.83;;;13.20;99.90;;;;;;5058782;28;20544;-83
2022/05/11 04:12:34;;;;;;;5.45;4.00;;;13.20;99.90;;;;;;5078275;28;20028;-82
2022/05/11 04:15:00;;;;;;;5.10;3.88;;;13.20;99.90;;;;;;5076211;28;20035;-83
2022/05/11 04:17:26;;;;;;;5.65;4.35;;;13.20;99.90;;;;;;5073968;28;20092;-83
2022/05/11 04:19:52;;;;;;;7.95;4.13;;;13.20;99.90;;;;;;5045501;28;20032;-83
2022/05/11 04:22:17;;;;;;;7.13;4.28;;;13.20;99.90;;;;;;5059291;28;20058;-85
2022/05/11 04:24:43;;;;;;;4.40;3.80;;;13.20;99.90;;;;;;5038315;28;20103;-85
2022/05/11 04:27:10;;;;;;;8.45;4.20;;;13.20;99.90;;;;;;5065020;28;20032;-84
2022/05/11 04:29:36;;;;;;;4.93;4.10;;;13.20;99.90;;;;;;5058325;28;20465;-85
2022/05/11 04:32:02;;;;;;;6.28;3.85;;;13.20;99.90;;;;;;5058752;28;20050;-84
2022/05/11 04:34:28;;;;;;;5.88;4.00;;;13.20;99.90;;;;;;5067295;28;20033;-85
2022/05/11 04:36:53;;;;;;;9.60;4.32;;;13.20;99.90;;;;;;5058025;28;20066;-90
2022/05/11 04:39:19;;;;;;;8.80;4.38;;;13.30;99.90;;;;;;5053912;28;20078;-91
2022/05/11 04:41:45;;;;;;;7.18;4.05;;;13.30;99.90;;;;;;5059173;28;20117;-91
2022/05/11 04:44:11;;;;;;;5.93;3.92;;;13.30;99.90;;;;;;5077405;28;20032;-91
2022/05/11 04:46:37;;;;;;;4.28;3.88;;;13.40;99.90;;;;;;5059224;28;20035;-91
2022/05/11 04:49:23;;;;;;;4.65;3.78;;;13.50;99.90;;;;;;5058355;28;20107;-84
2022/05/11 04:52:02;;;;;;;5.20;3.75;;;13.60;99.90;;;;;;5075867;28;20115;-84
2022/05/11 04:54:28;;;;;;;8.23;4.03;;;13.80;99.90;;;;;;5055463;28;20028;-84
2022/05/11 04:56:53;;;;;;;3.95;3.50;;;14.00;99.90;;;;;;5059494;28;20075;-83
2022/05/11 04:59:19;;;;;;;4.78;3.72;;;14.00;99.90;;;;;;5042539;28;20033;-83
2022/05/11 05:01:45;;;;;;;5.03;3.65;;;14.10;99.90;;;;;;5060030;28;20094;-83
2022/05/11 05:04:12;;;;;;;6.80;3.45;;;14.10;99.90;;;;;;5064962;28;20024;-83
2022/05/11 05:06:38;;;;;;;4.35;3.20;;;14.20;99.90;;;;;;5073741;28;20027;-83
2022/05/11 05:09:05;;;;;;;6.40;3.75;;;14.20;99.90;;;;;;5067307;28;20020;-82
2022/05/11 05:11:32;;;;;;;4.70;3.58;;;14.30;99.90;;;;;;5074700;28;20032;-84
2022/05/11 05:13:58;;;;;;;7.30;3.85;;;14.40;99.90;;;;;;5074851;28;20029;-83
2022/05/11 05:16:23;;;;;;;4.97;3.30;;;14.40;99.90;;;;;;5065361;28;20035;-82
2022/05/11 05:18:50;;;;;;;8.65;3.47;;;14.50;99.90;;;;;;5054977;28;20028;-82
2022/05/11 05:21:16;;;;;;;4.40;3.53;;;14.60;99.90;;;;;;5055138;28;20029;-82
2022/05/11 05:23:41;;;;;;;4.55;3.42;;;14.70;99.90;;;;;;5074396;28;20542;-82
2022/05/11 05:26:07;;;;;;;5.65;3.60;;;14.80;99.90;;;;;;5057513;28;20101;-82
2022/05/11 05:31:21;;;;;;;4.53;3.53;;;15.00;99.90;;;;;;5074593;28;20085;-82
2022/05/11 05:33:47;;;;;;;7.00;3.72;;;15.10;99.90;;;;;;5056489;28;20127;-83
2022/05/11 05:36:15;;;;;;;5.65;3.30;;;15.10;99.90;;;;;;5039526;28;20380;-82
2022/05/11 05:38:42;;;;;;;8.68;3.78;;;15.20;99.90;;;;;;5074498;28;20027;-82
2022/05/11 05:41:11;;;;;;;5.32;3.08;;;15.20;99.90;;;;;;5074745;28;20012;-82
2022/05/11 05:43:37;;;;;;;8.13;3.28;;;15.20;99.90;;;;;;5055942;28;20028;-82
2022/05/11 05:46:03;;;;;;;6.75;3.22;;;15.30;99.90;;;;;;5056417;28;20115;-82
2022/05/11 05:48:29;;;;;;;6.50;3.47;;;15.40;99.90;;;;;;5073605;28;20074;-82
2022/05/11 05:51:06;;;;;;;4.57;3.85;;;15.50;99.90;;;;;;5074163;28;20041;-82
2022/05/11 05:53:33;;;;;;;3.92;3.20;;;15.70;99.90;;;;;;5073761;28;20063;-82
2022/05/11 05:55:58;;;;;;;4.90;3.40;;;15.90;99.90;;;;;;5055078;28;20107;-82
2022/05/11 05:58:24;;;;;;;6.25;3.50;;;16.00;99.90;;;;;;5073361;28;20096;-82
2022/05/11 06:00:50;;;;;;;9.45;3.92;;;16.30;99.90;;;;;;5073793;28;20052;-82
2022/05/11 06:03:25;;;;;;;4.53;3.40;;;16.50;99.90;;;;;;5073537;28;20021;-82
2022/05/11 06:05:51;;;;;;;11.57;4.00;;;16.70;99.90;;;;;;5073714;28;20039;-82
2022/05/11 06:08:17;;;;;;;7.30;2.90;;;16.90;99.90;;;;;;5073342;28;20345;-83
2022/05/11 06:10:46;;;;;;;7.43;3.22;;;17.10;99.90;;;;;;5055500;28;20028;-83
2022/05/11 06:13:14;;;;;;;5.20;3.05;;;17.20;99.90;;;;;;5072619;28;20032;-82
2022/05/11 06:15:41;;;;;;;4.63;3.03;;;17.40;99.90;;;;;;5073578;28;20024;-83
2022/05/11 06:18:08;;;;;;;5.03;2.95;;;17.50;99.90;;;;;;5055705;28;20084;-82
2022/05/11 06:20:34;;;;;;;7.03;2.88;;;17.70;99.90;;;;;;5055355;28;20021;-82
2022/05/11 06:23:01;;;;;;;4.40;3.30;;;17.90;99.90;;;;;;5073480;28;20461;-82
2022/05/11 06:25:27;;;;;;;4.78;3.10;;;18.00;99.90;;;;;;5055904;28;20024;-83
2022/05/11 06:27:53;;;;;;;3.90;2.80;;;18.20;99.90;;;;;;5073194;28;20016;-82
2022/05/11 06:30:18;;;;;;;7.45;3.20;;;18.30;99.90;;;;;;5072889;28;20108;-82
2022/05/11 06:32:44;;;;;;;8.27;3.20;;;18.40;99.90;;;;;;5073532;28;20028;-82
2022/05/11 06:35:09;;;;;;;4.80;3.00;;;18.50;99.90;;;;;;5060278;28;20106;-83
2022/05/11 06:37:39;;;;;;;7.18;3.85;;;18.70;99.90;;;;;;5073149;28;20933;-82
2022/05/11 06:40:05;;;;;;;6.22;3.25;;;18.80;99.90;;;;;;5073019;28;20025;-83
2022/05/11 06:42:31;;;;;;;4.63;2.90;;;18.90;99.90;;;;;;5073050;28;20021;-83
2022/05/11 06:44:56;;;;;;;8.65;3.10;;;18.90;99.90;;;;;;5073065;28;20043;-83
2022/05/11 06:47:22;;;;;;;8.00;3.40;;;19.00;99.90;;;;;;5053952;28;20028;-82
2022/05/11 06:49:47;;;;;;;7.93;3.22;;;19.10;99.90;;;;;;5068952;28;20108;-83
2022/05/11 06:52:14;;;;;;;4.60;2.83;;;19.20;99.90;;;;;;5073189;28;20473;-83
2022/05/11 07:00:08;;;;;;;6.35;3.20;;;19.40;99.90;;;;;;5053749;28;20420;-83
2022/05/11 07:02:37;;;;;;;6.80;3.50;;;19.40;99.90;;;;;;5043999;28;20037;-83
2022/05/11 07:05:04;;;;;;;3.97;3.17;;;19.40;99.90;;;;;;5055697;28;20121;-83
2022/05/11 07:07:30;;;;;;;5.82;3.33;;;19.50;99.90;;;;;;5054512;28;20377;-83
2022/05/11 07:09:55;;;;;;;5.63;3.67;;;19.60;99.90;;;;;;5072996;28;20032;-82
2022/05/11 07:12:21;;;;;;;6.05;3.75;;;19.70;99.90;;;;;;5073492;28;20077;-83
2022/05/11 07:14:51;;;;;;;7.18;3.03;;;19.80;99.90;;;;;;5054931;28;20051;-82
2022/05/11 07:17:27;;;;;;;6.15;3.25;;;19.90;99.90;;;;;;5072798;28;20017;-82
2022/05/11 07:19:53;;;;;;;5.72;3.22;;;20.00;99.90;;;;;;5054781;28;20055;-83
2022/05/11 07:22:18;;;;;;;4.95;3.50;;;20.00;99.90;;;;;;5072910;28;20481;-82
2022/05/11 07:24:44;;;;;;;5.47;3.60;;;20.10;99.90;;;;;;5073115;28;20131;-83
2022/05/11 07:27:09;;;;;;;4.32;3.53;;;20.20;99.90;;;;;;5073080;28;20078;-83
2022/05/11 07:29:35;;;;;;;5.35;3.65;;;20.30;99.90;;;;;;5072452;28;20448;-80
2022/05/11 07:32:02;;;;;;;3.70;3.30;;;20.50;99.90;;;;;;5072126;28;20879;-80
2022/05/11 07:34:28;;;;;;;5.75;3.90;;;20.60;99.90;;;;;;5072314;28;20032;-80
2022/05/11 07:36:54;;;;;;;5.15;3.47;;;20.70;99.90;;;;;;5063066;28;20020;-77
2022/05/11 07:39:22;;;;;;;6.82;3.40;;;20.70;99.90;;;;;;5069571;28;20032;-77
2022/05/11 07:41:47;;;;;;;5.22;3.33;;;20.80;99.90;;;;;;5066553;28;20027;-77
2022/05/11 07:44:13;;;;;;;5.75;3.92;;;20.90;99.90;;;;;;5070064;28;20032;-77
2022/05/11 07:46:39;;;;;;;5.13;3.60;;;21.00;99.90;;;;;;5053010;28;20040;-76
2022/05/11 07:49:05;;;;;;;4.45;3.58;;;21.00;99.90;;;;;;5068019;28;20402;-77
2022/05/11 07:51:32;;;;;;;6.10;3.47;;;21.00;99.90;;;;;;5067190;28;20055;-77
2022/05/11 07:53:58;;;;;;;3.75;3.20;;;21.20;99.90;;;;;;5068410;28;20106;-77
2022/05/11 08:01:52;;;;;;;4.60;3.60;;;21.50;99.90;;;;;;5068194;28;20079;-77
2022/05/11 08:04:17;;;;;;;5.47;3.17;;;21.50;99.90;;;;;;5067906;28;20052;-77
2022/05/11 08:06:43;;;;;;;5.68;3.20;;;21.60;99.90;;;;;;5068222;28;20024;-76
2022/05/11 08:09:09;;;;;;;5.93;3.65;;;21.60;99.90;;;;;;5068209;28;20533;-76
2022/05/11 08:11:36;;;;;;;3.60;3.28;;;21.80;99.90;;;;;;5066525;28;20564;-76
2022/05/11 08:14:02;;;;;;;4.10;3.30;;;21.90;99.90;;;;;;5051229;28;20527;-77
2022/05/11 08:16:28;;;;;;;10.93;3.53;;;22.00;99.90;;;;;;5069280;28;20037;-76
2022/05/11 08:18:54;;;;;;;4.70;3.00;;;22.00;99.90;;;;;;5052422;28;20028;-76
2022/05/11 08:21:20;;;;;;;5.72;3.22;;;22.00;99.90;;;;;;5071472;28;20016;-76
2022/05/11 08:23:47;;;;;;;7.18;3.25;;;22.00;99.90;;;;;;5068622;28;20418;-75
2022/05/11 08:26:12;;;;;;;6.75;3.33;;;22.10;99.90;;;;;;5071391;28;20051;-76
2022/05/11 08:28:38;;;;;;;5.63;3.50;;;22.20;99.90;;;;;;5059645;28;20142;-78
2022/05/11 08:33:48;;;;;;;4.28;3.20;;;22.20;99.90;;;;;;5066514;28;20468;-75
2022/05/11 08:36:21;;;;;;;6.90;3.30;;;22.20;99.90;;;;;;5069392;28;20025;-77
2022/05/11 08:38:49;;;;;;;6.20;3.22;;;22.20;99.90;;;;;;5069198;28;20060;-78
2022/05/11 08:41:29;;;;;;;5.05;3.50;;;22.20;99.90;;;;;;5069752;28;20082;-78
2022/05/11 08:44:31;;;;;;;5.65;3.60;;;22.20;99.90;;;;;;5069764;28;20052;-77
2022/05/11 08:47:16;;;;;;;4.93;3.65;;;22.30;99.90;;;;;;5069169;28;20024;-77
2022/05/11 08:49:41;;;;;;;5.22;3.50;;;22.30;99.90;;;;;;5051620;28;20998;-77
2022/05/11 08:52:33;;;;;;;4.45;3.20;;;22.30;99.90;;;;;;5051946;28;20139;-77
2022/05/11 08:55:12;;;;;;;5.85;3.63;;;22.40;99.90;;;;;;5064372;28;20115;-77
2022/05/11 08:57:39;;;;;;;5.65;3.67;;;22.50;99.90;;;;;;5061755;28;20025;-78
2022/05/11 09:00:18;;;;;;;4.88;3.10;;;22.60;99.90;;;;;;5069298;28;20028;-76
2022/05/11 09:02:48;;;;;;;7.63;3.33;;;22.70;99.90;;;;;;5062423;28;20151;-78
2022/05/11 09:05:18;;;;;;;8.25;3.20;;;22.70;99.90;;;;;;5055807;28;20100;-80
2022/05/11 09:07:45;;;;;;;5.13;3.05;;;22.90;99.90;;;;;;5050369;28;20047;-80
2022/05/11 09:10:20;;;;;;;4.95;3.13;;;23.00;99.90;;;;;;5052761;28;20021;-80
2022/05/11 09:12:46;;;;;;;5.75;3.35;;;23.20;99.90;;;;;;5068735;28;20687;-80
2022/05/11 09:15:14;;;;;;;7.53;3.50;;;23.30;99.90;;;;;;5070893;28;20032;-80
2022/05/11 09:17:43;;;;;;;4.82;2.97;;;23.40;99.90;;;;;;5069040;28;20030;-81
2022/05/11 09:20:23;;;;;;;3.47;2.85;;;23.50;99.90;;;;;;5070873;28;20028;-80
2022/05/11 09:23:00;;;;;;;5.25;3.35;;;23.70;99.90;;;;;;5053373;28;20032;-80
2022/05/11 09:25:32;;;;;;;7.18;2.83;;;23.90;99.90;;;;;;5052545;28;20031;-81
2022/05/11 09:28:13;;;;;;;9.15;3.05;;;24.10;99.90;;;;;;5070979;28;20798;-81
2022/05/11 09:30:39;;;;;;;5.50;2.83;;;24.40;99.90;;;;;;5049810;28;20858;-80
2022/05/11 09:33:16;;;;;;;7.72;2.90;;;24.70;99.90;;;;;;5072899;28;20025;-80
2022/05/11 09:35:44;;;;;;;3.08;2.60;;;24.70;99.90;;;;;;5052184;28;20052;-80
2022/05/11 09:38:19;;;;;;;8.48;2.83;;;25.10;99.90;;;;;;5045844;28;20437;-81
2022/05/11 09:41:02;;;;;;;5.90;2.90;;;25.30;99.90;;;;;;5071524;28;20029;-80
2022/05/11 09:43:50;;;;;;;4.80;2.83;;;25.50;99.90;;;;;;5065770;28;20107;-81
2022/05/11 09:46:27;;;;;;;4.75;2.58;;;25.60;99.90;;;;;;5071901;28;20029;-81
2022/05/11 09:48:57;;;;;;;5.32;2.35;;;25.60;99.90;;;;;;5071597;28;20052;-81
2022/05/11 09:51:27;;;;;;;8.50;2.55;;;25.90;99.90;;;;;;5073609;28;20044;-84
2022/05/11 09:53:55;;;;;;;3.35;2.30;;;26.00;99.90;;;;;;5072807;28;20028;-84
2022/05/11 09:56:31;;;;;;;4.13;2.40;;;26.20;99.90;;;;;;5051908;28;20021;-84
2022/05/11 09:59:14;;;;;;;4.43;2.50;;;26.30;97.80;;;;;;5071845;28;20103;-83
2022/05/11 10:01:40;;;;;;;3.97;2.70;;;26.40;96.60;;;;;;5072102;28;20028;-81
2022/05/11 10:04:09;;;;;;;3.88;2.35;;;26.30;96.40;;;;;;5071602;28;20033;-80
2022/05/11 10:06:49;;;;;;;6.00;2.63;;;26.30;94.60;;;;;;5071340;28;20028;-80
2022/05/11 10:09:15;;;;;;;6.25;2.70;;;26.50;92.70;;;;;;5072041;28;20025;-80
2022/05/11 10:11:50;;;;;;;5.97;2.72;;;26.50;92.10;;;;;;5071569;28;20104;-77
2022/05/11 10:22:59;;;;;;;;;;;26.70;90.70;;;;;;5070833;28;20031;-75
2022/05/11 10:25:30;;;;;;;2.75;2.10;;;26.80;86.90;;;;;;5070765;28;19909;-76
2022/05/11 10:28:14;;;;;;;4.80;2.33;;;26.70;91.70;;;;;;5070628;28;20036;-76
2022/05/11 10:30:55;;;;;;;3.42;2.00;;;26.80;89.70;;;;;;5070778;28;20051;-76
2022/05/11 10:33:38;;;;;;;5.78;2.15;;;27.00;86.30;;;;;;5070683;28;20024;-74
2022/05/11 10:36:28;;;;;;;4.88;1.98;;;27.00;82.00;;;;;;5070361;28;20024;-73
2022/05/11 10:39:10;;;;;;;2.78;2.10;;;27.00;83.70;;;;;;5070366;28;20388;-74
2022/05/11 10:41:38;;;;;;;5.10;2.13;;;27.30;82.90;;;;;;5051944;28;20032;-74
2022/05/11 10:44:41;;;;;;;3.80;1.95;;;27.50;85.40;;;;;;5070281;28;20032;-74
2022/05/11 10:47:21;;;;;;;4.60;2.05;;;27.60;76.40;;;;;;5070251;28;20052;-74
2022/05/11 10:50:27;;;;;;;4.68;1.60;;;27.50;77.90;;;;;;5066346;28;20088;-74
2022/05/11 10:53:38;;;;;;;4.53;1.77;;;27.40;76.30;;;;;;5050269;28;20155;-74
2022/05/11 10:56:31;;;;;;;4.18;1.92;;;27.50;78.20;;;;;;5037934;28;20040;-74
2022/05/11 10:59:20;;;;;;;5.45;1.90;;;27.60;78.10;;;;;;5050224;28;20020;-74
2022/05/11 11:01:56;;;;;;;2.65;1.80;;;27.50;76.60;;;;;;5050270;28;20025;-74
2022/05/11 11:04:54;;;;;;;6.88;2.25;;;27.50;74.80;;;;;;5049915;28;20029;-74
2022/05/11 11:07:27;;;;;;;3.03;2.10;;;27.70;74.90;;;;;;5043834;28;20024;-74
2022/05/11 11:10:04;;;;;;;7.18;2.17;;;27.50;74.40;;;;;;5065217;28;20051;-75
2022/05/11 11:13:01;;;;;;;4.78;2.50;;;27.60;76.00;;;;;;5068112;28;20056;-74
2022/05/11 11:15:29;;;;;;;5.88;1.75;;;27.70;71.30;;;;;;5065064;28;20931;-73
2022/05/11 11:17:56;;;;;;;2.95;1.90;;;27.90;72.30;;;;;;5066875;28;20094;-75
2022/05/11 11:20:24;;;;;;;2.40;1.50;;;27.80;73.90;;;;;;5066853;28;20507;-75
2022/05/11 11:23:05;;;;;;;6.00;1.90;;;27.90;72.20;;;;;;5066893;28;20119;-75
2022/05/11 11:25:56;;;;;;;4.70;1.98;;;28.20;70.20;;;;;;5062856;28;20035;-75
2022/05/11 11:28:34;;;;;;;2.75;1.73;;;28.60;69.10;;;;;;5066573;28;20043;-75
2022/05/11 11:30:59;;;;;;;2.60;1.65;;;28.90;69.10;;;;;;5058693;28;20098;-75
2022/05/11 11:33:26;;;;;;;5.07;1.92;;;29.00;66.10;;;;;;5066459;28;20166;-75
2022/05/11 11:35:58;;;;;;;4.55;1.80;;;28.80;67.30;;;;;;5066542;28;20390;-74
2022/05/11 11:38:26;;;;;;;5.40;2.05;;;29.30;66.30;;;;;;5066531;28;20389;-75
2022/05/11 11:41:18;;;;;;;6.13;1.75;;;29.40;67.80;;;;;;5066805;28;20036;-74
2022/05/11 11:43:45;;;;;;;4.78;1.67;;;29.60;63.70;;;;;;5066951;28;20032;-74
2022/05/11 11:46:42;;;;;;;5.03;1.92;;;29.60;64.10;;;;;;5066589;28;20036;-74
2022/05/11 11:49:32;;;;;;;5.07;1.75;;;29.60;63.60;;;;;;5058553;28;20147;-75
2022/05/11 11:52:05;;;;;;;4.30;1.58;;;29.70;64.50;;;;;;5055228;28;20041;-74
2022/05/11 11:54:54;;;;;;;2.88;1.60;;;29.60;63.10;;;;;;5048398;28;20051;-75
2022/05/11 11:57:22;;;;;;;3.70;1.65;;;29.50;63.60;;;;;;5069126;28;20142;-75
2022/05/11 11:59:54;;;;;;;2.35;1.65;;;29.90;62.70;;;;;;5070502;28;20039;-75
2022/05/11 12:02:46;;;;;;;5.60;1.85;;;30.10;63.90;;;;;;5070482;28;20127;-75
2022/05/11 12:05:40;;;;;;;5.13;1.83;;;30.40;61.80;;;;;;5066736;28;20464;-75
2022/05/11 12:16:51;;;;;;;4.88;1.80;;;31.20;59.90;;;;;;5057466;28;20098;-76
2022/05/11 12:19:16;;;;;;;4.78;1.67;;;31.30;59.70;;;;;;5051195;28;20469;-76
2022/05/11 12:22:15;;;;;;;5.97;2.05;;;31.30;61.70;;;;;;5050860;28;20033;-76
2022/05/11 12:24:44;;;;;;;4.75;1.85;;;31.50;59.40;;;;;;5042470;28;20041;-76
2022/05/11 12:27:21;;;;;;;4.60;1.92;;;31.80;59.10;;;;;;5051347;28;20643;-76
2022/05/11 12:30:04;;;;;;;3.63;1.85;;;31.60;57.10;;;;;;5070411;28;20028;-76
2022/05/11 12:32:47;;;;;;;2.70;1.80;;;31.60;56.60;;;;;;5042608;28;20043;-76
2022/05/11 12:35:18;;;;;;;4.93;2.00;;;31.40;55.90;;;;;;5063321;28;20016;-76
2022/05/11 12:37:51;;;;;;;4.22;1.77;;;31.60;57.10;;;;;;5061623;28;20468;-78
2022/05/11 12:40:21;;;;;;;3.63;1.85;;;31.80;56.20;;;;;;5062100;28;20028;-77
2022/05/11 12:42:55;;;;;;;5.00;1.75;;;32.30;57.90;;;;;;5069140;28;20456;-77
2022/05/11 12:45:44;;;;;;;4.07;1.90;;;32.50;57.40;;;;;;5068671;28;20032;-77
2022/05/11 12:48:17;;;;;;;2.22;1.70;;;32.60;54.50;;;;;;5050410;28;20050;-76
2022/05/11 12:50:56;;;;;;;2.30;1.70;;;32.20;56.10;;;;;;5067871;28;20048;-77
2022/05/11 12:53:27;;;;;;;5.35;1.75;;;32.30;55.90;;;;;;5067711;28;20056;-75
2022/05/11 12:56:07;;;;;;;3.97;1.63;;;32.20;54.00;;;;;;5064558;28;20021;-76
2022/05/11 12:58:34;;;;;;;5.32;1.40;;;32.20;53.90;;;;;;5067760;28;20032;-76
2022/05/11 13:01:03;;;;;;;3.50;1.80;;;32.20;54.30;;;;;;5069448;28;20470;-77
2022/05/11 13:03:36;;;;;;;4.00;1.70;;;32.00;53.70;;;;;;5066478;28;20028;-76
2022/05/11 13:06:12;;;;;;;2.50;1.50;;;31.90;54.50;;;;;;5065339;28;20036;-76
2022/05/11 13:08:43;;;;;;;6.70;1.88;;;31.70;55.40;;;;;;5067528;28;20047;-76
2022/05/11 13:11:14;;;;;;;3.58;1.70;;;31.80;56.10;;;;;;5064209;28;20025;-76
2022/05/11 13:13:42;;;;;;;7.30;1.85;;;31.60;57.00;;;;;;5068064;28;20052;-75
2022/05/11 13:16:31;;;;;;;4.57;1.65;;;31.70;55.50;;;;;;5068545;28;20094;-75
2022/05/11 13:19:11;;;;;;;2.78;1.52;;;31.80;53.20;;;;;;5062229;28;20017;-77
2022/05/11 13:21:37;;;;;;;6.05;1.60;;;31.80;55.10;;;;;;5061802;28;20036;-82
2022/05/11 13:24:06;;;;;;;4.70;1.75;;;32.00;55.60;;;;;;5061538;28;20021;-79
2022/05/11 13:26:44;;;;;;;3.60;1.50;;;31.80;53.70;;;;;;5063053;28;20024;-78
2022/05/11 13:29:26;;;;;;;3.97;1.67;;;31.90;54.90;;;;;;5059251;28;20036;-78
2022/05/11 13:32:06;;;;;;;5.22;1.63;;;31.80;53.40;;;;;;5057769;28;20483;-76
2022/05/11 13:34:39;;;;;;;6.97;1.77;;;31.80;56.00;;;;;;5043486;28;20033;-77
2022/05/11 13:37:12;;;;;;;5.22;1.73;;;31.80;55.40;;;;;;5063550;28;20548;-77
2022/05/11 13:39:42;;;;;;;4.20;1.73;;;32.10;54.50;;;;;;5061911;28;20028;-78
2022/05/11 13:42:20;;;;;;;4.03;1.92;;;32.10;53.90;;;;;;5066505;28;20275;-77
2022/05/11 13:44:52;;;;;;;3.55;1.50;;;32.40;52.90;;;;;;5055717;28;20029;-77
2022/05/11 13:50:27;;;;;;;6.80;1.60;;;32.10;53.00;;;;;;5053468;28;20051;-77
2022/05/11 13:53:27;;;;;;;4.15;1.70;;;32.30;52.80;;;;;;5050925;28;20124;-79